createdAt,value
2022-09-10T00:01:09.505Z,14.60
2022-09-10T00:03:36.263Z,14.59
2022-09-10T00:06:04.970Z,14.60
2022-09-10T00:08:34.355Z,14.60
2022-09-10T00:11:05.911Z,14.62
2022-09-10T00:13:34.136Z,14.55
2022-09-10T00:16:04.134Z,14.57
2022-09-10T00:18:31.865Z,14.55
2022-09-10T00:20:59.564Z,14.54
2022-09-10T00:23:29.031Z,14.55
2022-09-10T00:25:57.824Z,14.52
2022-09-10T00:28:27.921Z,14.53
2022-09-10T00:30:55.432Z,14.52
2022-09-10T00:33:24.012Z,14.52
2022-09-10T00:35:51.119Z,14.52
2022-09-10T00:38:18.572Z,14.49
2022-09-10T00:40:46.375Z,14.50
2022-09-10T00:43:20.535Z,14.44
2022-09-10T00:45:54.760Z,14.45
2022-09-10T00:48:31.225Z,14.41
2022-09-10T00:51:04.330Z,14.42
2022-09-10T00:53:32.101Z,14.39
2022-09-10T00:56:02.671Z,14.43
2022-09-10T00:58:29.722Z,14.43
2022-09-10T01:01:01.488Z,14.39
2022-09-10T01:03:32.544Z,14.41
2022-09-10T01:06:00.396Z,14.38
2022-09-10T01:08:31.397Z,14.36
2022-09-10T01:11:26.609Z,14.37
2022-09-10T01:14:24.595Z,14.37
2022-09-10T01:17:19.238Z,14.35
2022-09-10T01:20:07.514Z,14.35
2022-09-10T01:22:59.715Z,14.35
2022-09-10T01:25:54.069Z,14.35
2022-09-10T01:28:45.461Z,14.35
2022-09-10T01:31:28.658Z,14.29
2022-09-10T01:34:04.119Z,14.29
2022-09-10T01:36:38.710Z,14.25
2022-09-10T01:39:06.428Z,14.24
2022-09-10T01:41:34.108Z,14.25
2022-09-10T01:44:13.276Z,14.25
2022-09-10T01:46:59.621Z,14.25
2022-09-10T01:49:39.285Z,14.22
2022-09-10T01:52:12.269Z,14.22
2022-09-10T01:54:48.015Z,14.22
2022-09-10T01:57:52.888Z,14.20
2022-09-10T02:00:22.270Z,14.21
2022-09-10T02:03:07.752Z,14.18
2022-09-10T02:05:37.660Z,14.18
2022-09-10T02:08:25.503Z,14.18
2022-09-10T02:11:00.480Z,14.12
2022-09-10T02:13:31.356Z,14.18
2022-09-10T02:16:24.033Z,14.14
2022-09-10T02:18:51.236Z,14.06
2022-09-10T02:21:18.736Z,14.05
2022-09-10T02:23:50.201Z,14.07
2022-09-10T02:26:17.096Z,14.11
2022-09-10T02:28:44.708Z,14.06
2022-09-10T02:31:13.331Z,14.09
2022-09-10T02:33:40.152Z,14.10
2022-09-10T02:36:07.536Z,14.14
2022-09-10T02:38:34.529Z,14.13
2022-09-10T02:41:01.560Z,14.12
2022-09-10T02:43:29.363Z,14.14
2022-09-10T02:45:59.911Z,14.18
2022-09-10T02:48:27.696Z,14.14
2022-09-10T02:50:57.493Z,14.09
2022-09-10T02:53:26.976Z,14.03
2022-09-10T02:55:56.658Z,14.03
2022-09-10T02:58:24.124Z,14.07
2022-09-10T03:00:51.704Z,14.07
2022-09-10T03:03:19.839Z,14.05
2022-09-10T03:05:47.456Z,14.04
2022-09-10T03:08:14.336Z,14.06
2022-09-10T03:10:44.896Z,14.06
2022-09-10T03:13:11.852Z,14.03
2022-09-10T03:15:38.645Z,13.99
2022-09-10T03:18:06.492Z,14.01
2022-09-10T03:20:36.425Z,14.06
2022-09-10T03:23:06.096Z,14.06
2022-09-10T03:25:33.023Z,14.05
2022-09-10T03:27:59.914Z,14.09
2022-09-10T03:30:27.556Z,14.08
2022-09-10T03:32:54.869Z,14.05
2022-09-10T03:35:22.463Z,14.03
2022-09-10T03:37:49.372Z,14.01
2022-09-10T03:40:16.867Z,14.03
2022-09-10T03:42:44.078Z,14.00
2022-09-10T03:45:12.037Z,13.95
2022-09-10T03:47:39.517Z,13.97
2022-09-10T03:50:07.034Z,14.01
2022-09-10T03:52:35.765Z,13.98
2022-09-10T03:55:02.976Z,13.98
2022-09-10T03:57:30.351Z,13.93
2022-09-10T03:59:57.125Z,13.90
2022-09-10T04:02:24.586Z,13.92
2022-09-10T04:04:51.464Z,13.92
2022-09-10T04:07:18.443Z,13.93
2022-09-10T04:09:45.199Z,13.92
2022-09-10T04:12:12.452Z,13.89
2022-09-10T04:14:39.471Z,13.93
2022-09-10T04:17:06.396Z,13.86
2022-09-10T04:19:33.396Z,13.89
2022-09-10T04:22:00.297Z,13.88
2022-09-10T04:24:27.777Z,13.90
2022-09-10T04:26:54.641Z,13.92
2022-09-10T04:29:23.059Z,13.93
2022-09-10T04:31:50.760Z,13.93
2022-09-10T04:34:19.073Z,13.91
2022-09-10T04:36:46.156Z,13.90
2022-09-10T04:39:14.579Z,13.91
2022-09-10T04:41:42.663Z,13.93
2022-09-10T04:44:09.866Z,13.94
2022-09-10T04:46:36.689Z,13.91
2022-09-10T04:49:07.328Z,13.93
2022-09-10T04:51:34.183Z,13.90
2022-09-10T04:54:01.846Z,13.90
2022-09-10T04:56:36.607Z,13.88
2022-09-10T04:59:04.808Z,13.89
2022-09-10T05:01:35.347Z,13.89
2022-09-10T05:04:03.599Z,13.84
2022-09-10T05:06:30.822Z,13.84
2022-09-10T05:08:57.827Z,13.86
2022-09-10T05:11:26.167Z,13.90
2022-09-10T05:13:54.148Z,13.90
2022-09-10T05:16:23.698Z,13.90
2022-09-10T05:18:50.828Z,13.89
2022-09-10T05:21:18.832Z,13.88
2022-09-10T05:23:46.080Z,13.86
2022-09-10T05:26:12.875Z,13.85
2022-09-10T05:28:40.005Z,13.89
2022-09-10T05:31:09.784Z,13.81
2022-09-10T05:33:40.762Z,13.84
2022-09-10T05:36:10.785Z,13.83
2022-09-10T05:38:40.205Z,13.85
2022-09-10T05:41:11.538Z,13.83
2022-09-10T05:43:42.867Z,13.83
2022-09-10T05:46:10.799Z,13.82
2022-09-10T05:48:41.928Z,13.83
2022-09-10T05:51:10.967Z,13.84
2022-09-10T05:53:38.926Z,13.89
2022-09-10T05:56:07.407Z,13.86
2022-09-10T05:58:35.610Z,13.83
2022-09-10T06:01:02.692Z,13.83
2022-09-10T06:03:31.190Z,13.83
2022-09-10T06:06:01.004Z,13.82
2022-09-10T06:08:41.325Z,13.82
2022-09-10T06:11:15.580Z,13.81
2022-09-10T06:13:49.284Z,13.79
2022-09-10T06:16:17.931Z,13.79
2022-09-10T06:18:45.328Z,13.79
2022-09-10T06:21:17.705Z,13.76
2022-09-10T06:23:47.508Z,13.78
2022-09-10T06:26:18.524Z,13.80
2022-09-10T06:28:47.135Z,13.75
2022-09-10T06:31:20.185Z,13.78
2022-09-10T06:33:49.889Z,13.78
2022-09-10T06:36:22.688Z,13.77
2022-09-10T06:38:50.818Z,13.78
2022-09-10T06:41:19.044Z,13.75
2022-09-10T06:43:54.386Z,13.79
2022-09-10T06:47:19.674Z,13.77
2022-09-10T06:49:24.039Z,13.76
2022-09-10T06:51:51.294Z,13.77
2022-09-10T06:54:19.003Z,13.80
2022-09-10T06:56:48.555Z,13.81
2022-09-10T06:59:17.052Z,13.81
2022-09-10T07:01:47.508Z,13.83
2022-09-10T07:04:15.213Z,13.82
2022-09-10T07:06:42.231Z,13.81
2022-09-10T07:09:11.519Z,13.81
2022-09-10T07:11:59.214Z,13.83
2022-09-10T07:14:29.361Z,13.83
2022-09-10T07:16:57.716Z,13.81
2022-09-10T07:19:29.110Z,13.83
2022-09-10T07:21:57.213Z,13.83
2022-09-10T07:24:24.344Z,13.84
2022-09-10T07:27:01.948Z,13.88
2022-09-10T07:29:31.367Z,13.86
2022-09-10T07:31:58.886Z,13.88
2022-09-10T07:34:26.987Z,13.86
2022-09-10T07:36:56.790Z,13.89
2022-09-10T07:39:25.871Z,13.90
2022-09-10T07:41:55.953Z,13.93
2022-09-10T07:44:26.852Z,13.92
2022-09-10T07:46:55.215Z,13.90
2022-09-10T07:49:22.120Z,13.90
2022-09-10T07:51:57.642Z,13.90
2022-09-10T07:54:29.557Z,13.90
2022-09-10T07:56:57.384Z,13.91
2022-09-10T07:59:24.313Z,13.91
2022-09-10T08:01:56.449Z,13.94
2022-09-10T08:04:23.590Z,13.93
2022-09-10T08:06:52.644Z,13.93
2022-09-10T08:09:19.497Z,13.94
2022-09-10T08:11:51.849Z,13.93
2022-09-10T08:14:21.160Z,13.93
2022-09-10T08:16:52.601Z,13.94
2022-09-10T08:19:20.935Z,13.96
2022-09-10T08:21:48.483Z,13.97
2022-09-10T08:24:22.104Z,13.94
2022-09-10T08:26:50.166Z,13.97
2022-09-10T08:29:18.442Z,13.98
2022-09-10T08:31:45.360Z,13.96
2022-09-10T08:34:19.581Z,13.98
2022-09-10T08:36:53.152Z,14.00
2022-09-10T08:39:20.665Z,14.00
2022-09-10T08:41:55.005Z,14.01
2022-09-10T08:44:59.049Z,14.04
2022-09-10T08:47:40.240Z,14.12
2022-09-10T08:50:36.104Z,14.13
2022-09-10T08:53:23.075Z,14.09
2022-09-10T08:55:51.027Z,14.10
2022-09-10T08:58:29.892Z,14.10
2022-09-10T09:01:02.298Z,14.13
2022-09-10T09:03:35.675Z,14.14
2022-09-10T09:06:05.669Z,14.11
2022-09-10T09:08:49.086Z,14.11
2022-09-10T09:11:44.117Z,14.13
2022-09-10T09:14:19.833Z,14.15
2022-09-10T09:17:18.058Z,14.18
2022-09-10T09:20:06.517Z,14.18
2022-09-10T09:22:55.159Z,14.17
2022-09-10T09:25:49.006Z,14.18
2022-09-10T09:28:26.048Z,14.19
2022-09-10T09:30:57.875Z,14.18
2022-09-10T09:33:30.508Z,14.18
2022-09-10T09:36:03.955Z,14.20
2022-09-10T09:38:37.413Z,14.20
2022-09-10T09:41:43.060Z,14.20
2022-09-10T09:44:53.827Z,14.23
2022-09-10T09:47:23.682Z,14.25
2022-09-10T09:49:50.828Z,14.25
2022-09-10T09:52:29.397Z,14.24
2022-09-10T09:55:15.508Z,14.25
2022-09-10T09:57:43.149Z,14.27
2022-09-10T10:00:37.171Z,14.29
2022-09-10T10:03:16.406Z,14.32
2022-09-10T10:05:43.300Z,14.33
2022-09-10T10:08:30.892Z,14.35
2022-09-10T10:10:58.533Z,14.33
2022-09-10T10:13:25.574Z,14.35
2022-09-10T10:15:54.206Z,14.36
2022-09-10T10:18:31.695Z,14.37
2022-09-10T10:21:44.158Z,14.39
2022-09-10T10:24:33.438Z,14.37
2022-09-10T10:27:00.892Z,14.39
2022-09-10T10:29:27.994Z,14.40
2022-09-10T10:31:56.303Z,14.41
2022-09-10T10:34:35.169Z,14.42
2022-09-10T10:37:09.625Z,14.44
2022-09-10T10:39:42.517Z,14.45
2022-09-10T10:42:19.383Z,14.48
2022-09-10T10:45:01.041Z,14.48
2022-09-10T10:47:43.329Z,14.44
2022-09-10T10:50:16.058Z,14.43
2022-09-10T10:52:54.959Z,14.44
2022-09-10T10:55:27.511Z,14.44
2022-09-10T10:58:32.070Z,14.48
2022-09-10T11:01:21.535Z,14.48
2022-09-10T11:04:26.069Z,14.54
2022-09-10T11:07:05.724Z,14.57
2022-09-10T11:09:41.307Z,14.59
2022-09-10T11:12:19.975Z,14.64
2022-09-10T11:15:00.542Z,14.68
2022-09-10T11:17:39.626Z,14.66
2022-09-10T11:20:29.497Z,14.62
2022-09-10T11:23:14.819Z,14.59
2022-09-10T11:26:10.577Z,14.60
2022-09-10T11:28:54.428Z,14.62
2022-09-10T11:31:36.811Z,14.62
2022-09-10T11:34:31.186Z,14.67
2022-09-10T11:37:35.467Z,14.66
2022-09-10T11:40:13.603Z,14.67
2022-09-10T11:42:44.313Z,14.68
2022-09-10T11:45:25.058Z,14.69
2022-09-10T11:48:17.903Z,14.67
2022-09-10T11:50:54.127Z,14.66
2022-09-10T11:53:23.347Z,14.66
2022-09-10T11:56:18.293Z,14.70
2022-09-10T11:59:05.362Z,14.71
2022-09-10T12:01:50.828Z,14.69
2022-09-10T12:04:47.701Z,14.69
2022-09-10T12:07:35.708Z,14.71
2022-09-10T12:10:30.347Z,14.74
2022-09-10T12:12:57.836Z,14.69
2022-09-10T12:15:27.105Z,14.69
2022-09-10T12:17:59.815Z,14.67
2022-09-10T12:20:38.312Z,14.68
2022-09-10T12:23:06.121Z,14.67
2022-09-10T12:25:34.816Z,14.68
2022-09-10T12:28:07.757Z,14.69
2022-09-10T12:30:37.748Z,14.73
2022-09-10T12:33:13.716Z,14.72
2022-09-10T12:35:44.953Z,14.71
2022-09-10T12:38:48.919Z,14.73
2022-09-10T12:41:21.494Z,14.73
2022-09-10T12:43:48.239Z,14.72
2022-09-10T12:46:15.022Z,14.70
2022-09-10T12:48:55.398Z,14.72
2022-09-10T12:51:52.791Z,14.71
2022-09-10T12:54:47.174Z,14.72
2022-09-10T12:57:41.365Z,14.70
2022-09-10T13:00:22.243Z,14.71
2022-09-10T13:03:08.589Z,14.70
2022-09-10T13:05:44.461Z,14.70
2022-09-10T13:08:28.063Z,14.71
2022-09-10T13:10:59.122Z,14.71
2022-09-10T13:13:33.157Z,14.72
2022-09-10T13:16:01.692Z,14.75
2022-09-10T13:18:34.067Z,14.78
2022-09-10T13:21:23.633Z,14.78
2022-09-10T13:23:54.919Z,14.78
2022-09-10T13:26:38.361Z,14.77
2022-09-10T13:29:26.775Z,14.82
2022-09-10T13:32:14.089Z,14.84
2022-09-10T13:34:53.056Z,14.80
2022-09-10T13:37:44.641Z,14.80
2022-09-10T13:40:36.950Z,14.80
2022-09-10T13:43:06.439Z,14.84
2022-09-10T13:45:40.258Z,14.84
2022-09-10T13:48:19.099Z,14.83
2022-09-10T13:51:21.034Z,14.89
2022-09-10T13:53:51.578Z,14.89
2022-09-10T13:56:27.720Z,14.88
2022-09-10T13:59:00.982Z,14.88
2022-09-10T14:01:49.891Z,14.86
2022-09-10T14:04:29.384Z,14.86
2022-09-10T14:07:02.983Z,14.91
2022-09-10T14:09:31.215Z,14.91
2022-09-10T14:12:02.301Z,14.95
2022-09-10T14:14:34.252Z,14.94
2022-09-10T14:17:12.532Z,14.94
2022-09-10T14:20:05.797Z,14.98
2022-09-10T14:22:33.075Z,14.95
2022-09-10T14:25:02.665Z,14.94
2022-09-10T14:27:31.107Z,14.96
2022-09-10T14:30:18.354Z,14.98
2022-09-10T14:32:46.330Z,14.99
2022-09-10T14:35:43.112Z,14.99
2022-09-10T14:38:26.961Z,15.01
2022-09-10T14:41:11.073Z,15.00
2022-09-10T14:43:40.703Z,15.09
2022-09-10T14:46:46.108Z,15.17
2022-09-10T14:49:17.439Z,15.14
2022-09-10T14:51:45.020Z,15.12
2022-09-10T14:54:13.180Z,15.10
2022-09-10T14:56:42.334Z,15.09
2022-09-10T14:59:24.545Z,15.06
2022-09-10T15:01:51.631Z,15.07
2022-09-10T15:04:26.155Z,15.08
2022-09-10T15:06:54.651Z,15.08
2022-09-10T15:09:21.891Z,15.09
2022-09-10T15:11:54.794Z,15.09
2022-09-10T15:14:22.353Z,15.09
2022-09-10T15:16:52.794Z,15.08
2022-09-10T15:19:20.482Z,15.09
2022-09-10T15:21:47.643Z,15.13
2022-09-10T15:24:17.318Z,15.11
2022-09-10T15:26:44.759Z,15.11
2022-09-10T15:29:12.108Z,15.11
2022-09-10T15:31:39.418Z,15.09
2022-09-10T15:34:08.773Z,15.09
2022-09-10T15:36:37.207Z,15.18
2022-09-10T15:39:07.780Z,15.17
2022-09-10T15:41:34.644Z,15.17
2022-09-10T15:44:03.136Z,15.16
2022-09-10T15:46:30.298Z,15.16
2022-09-10T15:48:59.505Z,15.21
2022-09-10T15:51:26.984Z,15.21
2022-09-10T15:53:55.027Z,15.22
2022-09-10T15:56:24.368Z,15.17
2022-09-10T15:58:56.472Z,15.15
2022-09-10T16:01:25.258Z,15.13
2022-09-10T16:03:58.232Z,15.10
2022-09-10T16:06:31.256Z,15.09
2022-09-10T16:09:01.916Z,15.11
2022-09-10T16:11:34.082Z,15.11
2022-09-10T16:14:04.694Z,15.09
2022-09-10T16:16:32.474Z,15.12
2022-09-10T16:19:00.456Z,15.10
2022-09-10T16:21:32.925Z,15.09
2022-09-10T16:24:01.047Z,15.11
2022-09-10T16:26:36.793Z,15.11
2022-09-10T16:29:15.136Z,15.14
2022-09-10T16:31:44.583Z,15.25
2022-09-10T16:34:16.099Z,15.34
2022-09-10T16:36:43.649Z,15.28
2022-09-10T16:39:13.267Z,15.16
2022-09-10T16:41:41.579Z,15.16
2022-09-10T16:44:09.277Z,15.15
2022-09-10T16:46:36.291Z,15.13
2022-09-10T16:49:03.153Z,15.10
2022-09-10T16:51:30.153Z,15.08
2022-09-10T16:54:02.276Z,15.09
2022-09-10T16:56:42.229Z,15.09
2022-09-10T16:59:15.108Z,15.10
2022-09-10T17:01:44.189Z,15.11
2022-09-10T17:04:19.256Z,15.10
2022-09-10T17:06:47.796Z,15.11
2022-09-10T17:09:14.867Z,15.13
2022-09-10T17:11:41.764Z,15.08
2022-09-10T17:14:08.619Z,15.06
2022-09-10T17:16:39.044Z,15.07
2022-09-10T17:19:11.455Z,15.09
2022-09-10T17:21:40.112Z,15.07
2022-09-10T17:24:09.139Z,15.10
2022-09-10T17:26:37.523Z,15.04
2022-09-10T17:29:10.412Z,15.02
2022-09-10T17:31:37.433Z,15.03
2022-09-10T17:34:04.498Z,15.04
2022-09-10T17:36:32.149Z,15.04
2022-09-10T17:38:59.668Z,15.01
2022-09-10T17:41:28.536Z,15.00
2022-09-10T17:43:56.165Z,15.01
2022-09-10T17:46:24.218Z,15.03
2022-09-10T17:48:53.588Z,15.01
2022-09-10T17:51:25.679Z,15.00
2022-09-10T17:53:55.282Z,15.01
2022-09-10T17:56:23.933Z,15.06
2022-09-10T17:59:03.842Z,15.03
2022-09-10T18:01:32.871Z,15.03
2022-09-10T18:04:00.005Z,15.02
2022-09-10T18:06:29.090Z,14.99
2022-09-10T18:09:00.785Z,14.97
2022-09-10T18:11:32.519Z,14.94
2022-09-10T18:14:00.547Z,14.97
2022-09-10T18:16:33.251Z,14.95
2022-09-10T18:19:04.342Z,14.96
2022-09-10T18:21:33.528Z,14.94
2022-09-10T18:24:03.415Z,14.97
2022-09-10T18:26:33.588Z,14.98
2022-09-10T18:29:03.452Z,14.94
2022-09-10T18:31:33.691Z,14.93
2022-09-10T18:34:01.514Z,14.94
2022-09-10T18:36:28.825Z,14.92
2022-09-10T18:38:55.756Z,14.89
2022-09-10T18:41:24.545Z,14.88
2022-09-10T18:43:53.815Z,14.89
2022-09-10T18:46:21.095Z,14.89
2022-09-10T18:48:48.536Z,14.87
2022-09-10T18:51:17.718Z,14.87
2022-09-10T18:53:45.397Z,14.88
2022-09-10T18:56:16.244Z,14.86
2022-09-10T18:58:48.573Z,14.84
2022-09-10T19:01:15.961Z,14.85
2022-09-10T19:03:45.212Z,14.81
2022-09-10T19:06:15.198Z,14.80
2022-09-10T19:08:53.507Z,14.79
2022-09-10T19:11:24.448Z,14.78
2022-09-10T19:13:57.305Z,14.78
2022-09-10T19:16:27.268Z,14.80
2022-09-10T19:18:59.017Z,14.78
2022-09-10T19:21:27.432Z,14.80
2022-09-10T19:23:59.453Z,14.78
2022-09-10T19:26:31.848Z,14.79
2022-09-10T19:29:01.028Z,14.79
2022-09-10T19:31:30.031Z,14.78
2022-09-10T19:33:59.184Z,14.79
2022-09-10T19:36:28.356Z,14.77
2022-09-10T19:38:55.348Z,14.78
2022-09-10T19:41:23.354Z,14.74
2022-09-10T19:43:51.904Z,14.79
2022-09-10T19:46:21.610Z,14.78
2022-09-10T19:48:48.989Z,14.74
2022-09-10T19:51:20.147Z,14.75
2022-09-10T19:53:48.250Z,14.75
2022-09-10T19:56:20.873Z,14.78
2022-09-10T19:58:50.852Z,14.77
2022-09-10T20:01:23.760Z,14.80
2022-09-10T20:03:52.076Z,14.79
2022-09-10T20:06:21.217Z,14.80
2022-09-10T20:08:50.342Z,14.78
2022-09-10T20:11:23.163Z,14.78
2022-09-10T20:13:55.233Z,14.81
2022-09-10T20:16:23.748Z,14.80
2022-09-10T20:18:50.669Z,14.79
2022-09-10T20:21:25.221Z,14.79
2022-09-10T20:23:55.675Z,14.80
2022-09-10T20:26:25.248Z,14.79
2022-09-10T20:29:00.963Z,14.79
2022-09-10T20:31:31.376Z,14.80
2022-09-10T20:34:00.591Z,14.79
2022-09-10T20:36:28.595Z,14.78
2022-09-10T20:38:56.087Z,14.74
2022-09-10T20:41:24.142Z,14.72
2022-09-10T20:43:51.953Z,14.74
2022-09-10T20:46:22.190Z,14.75
2022-09-10T20:48:51.074Z,14.74
2022-09-10T20:51:20.220Z,14.77
2022-09-10T20:53:48.068Z,14.70
2022-09-10T20:56:18.161Z,14.71
2022-09-10T20:58:46.405Z,14.70
2022-09-10T21:01:14.585Z,14.68
2022-09-10T21:03:41.732Z,14.68
2022-09-10T21:06:10.420Z,14.68
2022-09-10T21:08:39.344Z,14.67
2022-09-10T21:11:08.328Z,14.68
2022-09-10T21:13:36.444Z,14.67
2022-09-10T21:16:12.581Z,14.68
2022-09-10T21:18:41.802Z,14.66
2022-09-10T21:21:13.432Z,14.69
2022-09-10T21:23:48.173Z,14.67
2022-09-10T21:26:17.828Z,14.65
2022-09-10T21:28:44.937Z,14.65
2022-09-10T21:31:13.094Z,14.63
2022-09-10T21:33:41.491Z,14.63
2022-09-10T21:36:13.501Z,14.59
2022-09-10T21:38:41.315Z,14.60
2022-09-10T21:41:15.385Z,14.62
2022-09-10T21:43:44.872Z,14.65
2022-09-10T21:46:13.615Z,14.64
2022-09-10T21:48:42.500Z,14.63
2022-09-10T21:51:14.294Z,14.62
2022-09-10T21:53:42.419Z,14.58
2022-09-10T21:56:12.715Z,14.56
2022-09-10T21:58:40.456Z,14.56
2022-09-10T22:01:12.429Z,14.56
2022-09-10T22:03:39.945Z,14.55
2022-09-10T22:06:18.575Z,14.53
2022-09-10T22:08:48.601Z,14.54
2022-09-10T22:11:19.017Z,14.52
2022-09-10T22:13:51.960Z,14.53
2022-09-10T22:16:20.919Z,14.51
2022-09-10T22:18:49.009Z,14.51
2022-09-10T22:21:17.046Z,14.49
2022-09-10T22:23:44.626Z,14.49
2022-09-10T22:26:16.484Z,14.48
2022-09-10T22:28:44.514Z,14.52
2022-09-10T22:31:14.123Z,14.50
2022-09-10T22:33:43.801Z,14.51
2022-09-10T22:36:26.568Z,14.52
2022-09-10T22:38:56.340Z,14.50
2022-09-10T22:41:23.238Z,14.48
2022-09-10T22:43:50.611Z,14.47
2022-09-10T22:46:18.266Z,14.47
2022-09-10T22:48:46.248Z,14.47
2022-09-10T22:51:19.080Z,14.42
2022-09-10T22:53:47.017Z,14.41
2022-09-10T22:56:15.189Z,14.41
2022-09-10T22:58:42.100Z,14.40
2022-09-10T23:01:12.298Z,14.41
2022-09-10T23:03:39.956Z,14.42
2022-09-10T23:06:12.884Z,14.40
2022-09-10T23:08:40.240Z,14.39
2022-09-10T23:11:15.367Z,14.38
2022-09-10T23:13:44.764Z,14.39
2022-09-10T23:16:18.080Z,14.38
2022-09-10T23:18:52.142Z,14.38
2022-09-10T23:21:19.843Z,14.36
2022-09-10T23:23:48.228Z,14.37
2022-09-10T23:26:17.287Z,14.38
2022-09-10T23:28:45.259Z,14.36
2022-09-10T23:31:17.732Z,14.35
2022-09-10T23:33:51.992Z,14.34
2022-09-10T23:36:18.998Z,14.36
2022-09-10T23:38:45.791Z,14.35
2022-09-10T23:41:12.829Z,14.32
2022-09-10T23:43:40.432Z,14.34
2022-09-10T23:46:08.958Z,14.33
2022-09-10T23:48:36.933Z,14.33
2022-09-10T23:51:06.374Z,14.29
2022-09-10T23:53:33.519Z,14.28
2022-09-10T23:56:02.901Z,14.30
2022-09-10T23:58:29.953Z,14.28
